Date,TemperatureHighF,TemperatureAvgF,TemperatureLowF,DewpointHighF,DewpointAvgF,DewpointLowF,HumidityHigh,HumidityAvg,HumidityLow,PressureMaxIn,PressureMinIn,WindSpeedMaxMPH,WindSpeedAvgMPH,GustSpeedMaxMPH,PrecipitationSumIn
2013-1-1,79.7,74.1,68.5,64.2,61.3,58.2,72,65,58,30.14,30.01,17,5,17,0.00
2013-1-2,79.5,71.5,64.0,67.8,63.0,57.5,82,75,66,30.02,29.94,11,2,11,0.00
2013-1-3,81.1,73.8,67.6,69.1,65.6,61.6,82,76,65,30.08,29.98,12,3,12,0.00
2013-1-4,79.7,73.0,68.0,70.0,66.0,62.3,83,79,71,30.17,30.05,8,2,8,0.00
2013-1-5,74.3,70.5,67.8,68.4,65.1,62.5,85,83,78,30.17,30.08,8,1,8,0.31
2013-1-6,81.0,74.0,66.9,70.9,67.2,61.9,86,80,71,30.13,30.01,14,4,14,0.00
2013-1-7,75.6,72.0,68.7,68.4,66.3,63.7,84,82,76,30.08,30.01,8,1,8,0.11
2013-1-8,82.2,76.2,71.6,72.4,69.2,66.3,85,79,71,30.12,30.00,13,4,13,0.25
2013-1-9,83.7,78.4,74.8,71.8,69.4,67.0,82,74,67,30.22,30.06,14,7,14,0.00
2013-1-10,83.5,77.4,74.5,68.6,66.3,64.1,77,69,58,30.22,30.13,16,7,16,0.00
2013-1-11,82.6,76.8,73.9,70.1,66.9,65.3,77,72,65,30.19,30.10,13,6,13,0.00
2013-1-12,82.4,76.6,73.8,68.4,65.8,63.7,75,69,61,30.11,30.05,12,4,12,0.00
2013-1-13,82.6,76.3,72.9,68.5,64.8,61.7,75,68,61,30.08,30.01,12,3,12,0.00
2013-1-14,82.2,76.3,72.3,66.6,64.4,61.1,73,67,58,30.12,30.06,13,5,13,0.00
2013-1-15,82.6,76.5,73.4,67.8,65.2,61.9,76,68,60,30.08,30.00,10,5,10,0.00
2013-1-16,82.0,75.7,68.9,69.4,65.8,61.0,81,72,62,30.06,29.97,12,4,12,0.00
2013-1-17,79.9,72.5,64.0,71.1,65.1,53.4,85,78,68,30.03,29.93,15,3,15,0.31
2013-1-18,71.1,65.4,56.5,59.5,53.7,46.4,71,66,60,30.16,30.02,12,4,12,0.00
2013-1-19,73.2,70.6,68.0,66.7,63.1,58.7,85,77,67,30.11,30.00,9,2,9,0.34
2013-1-20,77.9,71.6,65.8,68.2,64.6,60.9,86,79,71,30.04,29.96,9,2,9,0.25
2013-1-21,79.9,71.8,67.5,70.2,65.7,62.1,85,81,70,30.01,29.90,9,2,9,0.39
2013-1-22,76.1,69.8,64.4,62.8,58.8,53.0,83,69,57,30.16,29.94,15,4,15,0.00
2013-1-23,76.3,69.4,63.1,59.9,55.5,52.5,72,62,51,30.22,30.14,10,3,10,0.00
2013-1-24,75.2,66.9,61.0,56.1,53.3,48.2,75,62,48,30.21,30.14,9,2,9,0.00
2013-1-25,75.4,67.6,60.6,61.5,55.8,50.7,72,66,56,30.30,30.06,8,1,8,0.00
2013-1-26,76.1,69.2,61.0,62.4,58.4,52.8,80,69,55,30.18,30.11,8,2,8,0.00
2013-1-27,78.6,73.6,68.2,62.5,61.1,57.4,72,65,55,30.21,30.11,9,3,9,0.00
2013-1-28,82.0,75.8,72.1,67.1,64.1,60.3,75,67,59,30.24,30.15,12,6,12,0.00
2013-1-29,81.5,75.7,72.7,70.0,66.3,64.2,79,73,65,30.15,30.07,14,6,14,0.00
2013-1-30,81.0,75.5,71.8,68.0,65.1,62.3,80,70,63,30.08,29.93,16,7,16,0.00
2013-1-31,72.9,69.4,61.2,67.6,58.6,43.2,85,69,51,30.12,29.90,9,2,9,0.00
2013-2-1,75.0,64.8,56.3,57.8,50.3,41.8,67,59,52,30.19,30.09,14,3,14,0.00
2013-2-2,77.4,66.0,57.6,54.9,50.8,41.7,69,58,44,30.18,30.06,9,1,9,0.00
2013-2-3,76.5,65.6,58.8,55.7,49.7,44.0,74,58,36,30.10,30.01,12,2,12,0.00
2013-2-4,75.9,64.5,54.1,56.6,49.5,41.6,70,59,38,30.06,29.98,12,2,12,0.00
2013-2-5,79.3,68.8,58.3,62.9,57.4,50.6,76,68,55,30.03,29.96,9,2,9,0.00
2013-2-6,80.8,72.0,64.2,66.4,61.6,57.7,82,70,60,30.05,29.97,9,3,9,0.00
2013-2-7,84.2,75.8,71.2,68.5,63.9,60.3,72,67,58,30.03,29.90,10,5,10,0.00
2013-2-8,83.7,75.0,70.0,68.9,64.8,61.7,82,71,57,29.98,29.88,9,2,9,0.00
2013-2-9,80.8,73.0,67.5,65.9,62.8,58.9,83,71,58,30.12,29.96,9,3,9,0.00
2013-2-10,76.6,72.4,70.7,62.8,60.5,58.1,72,66,61,30.19,30.09,14,6,14,0.00
2013-2-11,82.9,77.2,73.2,66.5,64.2,62.7,71,64,58,30.14,30.07,14,7,14,0.00
2013-2-12,85.3,76.0,69.1,69.8,65.9,61.6,79,71,60,30.07,29.95,14,4,14,0.00
2013-2-13,85.5,76.8,70.5,73.1,68.5,64.0,85,76,65,29.97,29.86,15,4,15,0.00
2013-2-14,80.4,72.4,65.5,70.0,65.5,59.8,83,79,70,29.96,29.76,14,3,14,1.37
2013-2-15,74.3,68.7,65.5,65.7,62.9,60.2,85,82,75,29.95,29.88,8,2,8,0.56
2013-2-16,75.2,67.4,58.3,63.6,56.7,45.1,84,70,49,30.03,29.82,14,4,14,0.00
2013-2-17,62.6,55.3,48.6,45.2,33.1,24.8,63,45,25,30.23,30.03,18,4,18,0.00
2013-2-18,72.1,61.3,49.6,56.9,46.5,34.6,69,58,48,30.23,30.14,13,5,13,0.00
2013-2-19,81.0,72.7,65.1,66.1,60.7,53.8,77,66,58,30.14,30.04,15,6,15,0.00
2013-2-20,79.7,72.5,65.7,67.0,63.4,59.7,82,73,60,30.05,29.97,9,2,9,0.03
2013-2-21,85.3,76.0,69.6,69.3,65.4,62.4,78,70,59,30.04,29.93,11,4,11,0.00
2013-2-22,85.1,77.6,72.9,71.8,67.9,64.0,80,72,62,30.05,29.98,14,8,14,0.00
2013-2-23,85.5,77.8,73.0,72.2,68.8,65.6,81,74,64,30.01,29.89,16,6,16,0.33
2013-2-24,86.2,77.4,72.1,74.1,69.4,65.8,83,77,62,29.94,29.87,15,3,15,0.00
2013-2-25,86.2,77.1,70.5,73.7,69.0,64.2,82,76,66,29.88,29.79,14,4,14,0.00
2013-2-26,84.9,78.9,74.7,73.7,69.9,67.7,81,74,67,29.86,29.77,21,6,21,0.00
2013-2-27,79.0,72.9,66.7,70.2,64.1,56.6,81,74,59,29.92,29.83,7,2,7,0.62
2013-2-28,75.6,67.4,62.4,56.6,53.9,50.7,69,62,48,29.94,29.85,8,2,8,0.00
2013-3-1,70.0,64.9,61.5,55.5,51.9,48.3,71,63,55,29.94,29.85,8,2,8,0.00
2013-3-2,69.3,62.1,56.5,49.9,44.9,40.0,69,54,43,29.97,29.90,16,4,16,0.00
2013-3-3,66.0,59.8,53.4,45.4,42.8,41.4,68,54,44,30.08,29.93,13,4,13,0.00
2013-3-4,66.7,56.7,46.4,45.1,39.4,35.1,69,54,32,30.12,30.04,12,3,12,0.00
2013-3-5,76.1,64.6,52.7,59.4,52.4,43.7,73,65,53,30.10,30.03,12,3,12,0.00
2013-3-6,77.2,66.4,56.8,63.2,52.3,39.3,81,62,33,30.04,29.90,13,4,13,0.00
2013-3-7,72.0,61.6,51.3,54.8,46.5,37.4,74,58,41,30.12,30.00,13,2,13,0.00
2013-3-8,75.0,64.8,55.4,55.1,51.3,47.2,76,63,45,30.13,30.06,9,2,9,0.00
2013-3-9,77.2,67.3,58.1,59.4,53.7,48.5,79,62,53,30.14,30.04,13,3,13,0.00
2013-3-10,80.1,72.5,67.3,60.4,57.0,52.8,67,58,48,30.10,30.03,10,4,10,0.00
2013-3-11,83.7,74.5,69.6,63.6,60.7,57.8,69,63,49,30.06,29.93,13,6,13,0.00
2013-3-12,83.7,76.0,71.8,70.2,64.8,61.2,73,68,63,29.96,29.85,16,6,16,0.00
2013-3-13,77.9,70.3,63.3,64.3,55.8,47.7,74,61,43,30.07,29.95,12,3,12,0.00
2013-3-14,73.0,64.2,57.4,51.9,48.6,43.2,70,58,38,30.14,30.02,16,4,16,0.00
2013-3-15,74.8,65.1,55.8,55.9,51.2,44.5,69,61,50,30.17,30.09,10,3,10,0.00
2013-3-16,79.0,68.1,58.6,58.5,54.4,50.8,79,63,47,30.13,30.04,12,3,12,0.00
2013-3-17,80.8,71.7,63.7,62.4,58.3,53.3,72,63,53,30.08,30.00,13,4,13,0.00
2013-3-18,85.5,75.4,70.9,69.8,64.7,59.7,81,70,58,30.03,29.92,17,5,17,0.33
2013-3-19,81.9,74.2,70.2,68.8,66.2,63.7,84,77,62,29.96,29.81,10,2,10,0.00
2013-3-20,84.4,74.5,66.6,69.9,64.2,58.6,82,71,56,29.96,29.76,12,3,12,0.00
2013-3-21,77.9,69.3,62.4,60.2,55.3,50.7,79,62,45,29.91,29.77,10,3,10,0.00
2013-3-22,79.7,69.8,58.6,67.0,58.3,49.8,80,67,53,29.95,29.85,13,4,13,0.00
2013-3-23,86.9,78.4,72.1,74.6,70.2,66.5,84,76,65,29.94,29.80,20,4,20,0.00
2013-3-24,92.3,81.6,74.8,73.5,70.6,67.1,84,70,53,29.86,29.69,21,6,21,0.00
2013-3-25,84.4,76.8,68.2,70.2,60.2,40.8,82,59,34,29.94,29.72,9,3,9,0.00
2013-3-26,74.7,66.7,57.7,45.4,39.3,33.6,45,37,24,30.14,29.94,14,5,14,0.00
2013-3-27,70.9,60.5,50.4,49.2,43.0,33.8,67,53,41,30.17,30.09,11,3,11,0.00
2013-3-28,74.3,63.5,53.6,52.2,46.2,36.4,69,55,32,30.19,30.10,9,3,9,0.00
2013-3-29,78.8,67.5,57.9,55.0,50.7,45.3,68,56,41,30.21,30.13,10,3,10,0.00
2013-3-30,80.1,71.6,65.1,56.8,53.7,51.2,68,54,38,30.20,30.12,9,4,9,0.00
2013-3-31,85.1,75.4,68.5,67.8,62.4,54.9,71,64,54,30.14,29.99,17,7,17,0.00
2013-4-1,91.2,78.4,72.9,71.3,66.3,63.2,80,68,42,30.01,29.92,18,4,18,0.19
2013-4-2,84.7,76.0,68.7,67.5,64.8,62.3,82,69,54,30.03,29.94,8,3,8,0.00
2013-4-3,88.0,78.9,72.9,71.2,67.2,63.8,76,68,57,30.03,29.97,14,6,14,0.00
2013-4-4,87.6,77.6,72.1,73.0,68.4,65.1,81,74,61,30.01,29.88,18,6,18,0.64
2013-4-5,74.3,70.8,67.3,68.8,64.5,61.8,83,81,76,29.95,29.78,14,3,14,0.45
2013-4-6,79.7,71.0,61.9,67.0,61.0,55.6,83,71,59,30.04,29.85,11,4,11,0.03
2013-4-7,83.1,75.9,71.4,66.3,62.3,59.9,70,63,53,30.08,29.98,10,5,10,0.00
2013-4-8,85.8,76.5,66.6,65.5,61.9,57.2,74,61,49,30.09,29.99,9,3,9,0.00
2013-4-9,86.5,76.0,73.8,68.1,65.5,62.8,75,70,52,30.10,30.00,12,6,12,0.08
2013-4-10,88.3,81.7,74.1,73.1,69.5,64.5,74,67,60,30.05,30.00,13,7,13,0.00
2013-4-12,91.2,83.0,76.8,76.9,73.4,70.5,81,73,62,29.91,29.85,18,8,18,0.00
2013-4-13,86.4,78.0,73.0,76.0,70.8,67.2,85,79,68,29.92,29.84,12,2,12,0.56
2013-4-14,90.0,80.8,72.9,76.5,71.7,66.8,85,74,63,29.93,29.88,14,5,14,0.00
2013-4-15,91.4,80.6,74.1,76.7,71.8,67.9,84,75,59,30.01,29.89,14,3,14,0.53
2013-4-16,89.8,80.0,72.9,75.8,71.2,67.4,85,75,62,30.07,29.97,12,3,12,0.03
2013-4-17,88.0,80.4,75.2,71.3,68.1,65.5,76,67,55,30.06,29.99,10,4,10,0.00
2013-4-18,90.9,82.1,76.3,74.9,70.1,66.5,75,67,58,30.01,29.93,13,6,13,0.00
2013-4-19,92.5,83.2,77.5,75.6,71.9,68.5,80,69,57,30.01,29.94,17,8,17,0.03
2013-4-20,92.7,80.7,74.3,77.4,72.0,67.9,83,75,59,30.03,29.93,12,4,12,0.19
2013-4-21,90.5,80.2,73.9,74.0,67.3,51.5,79,66,43,30.05,29.96,12,4,12,0.00
2013-4-22,88.0,78.2,73.4,70.0,52.9,16.6,75,44,11,30.00,29.91,14,3,14,0.25
2013-4-23,86.9,77.8,70.2,68.1,51.5,15.1,62,43,12,30.04,29.91,13,4,13,0.00
2013-4-24,88.5,80.3,73.9,68.1,64.3,60.2,66,59,49,30.09,30.00,10,4,10,0.00
2013-4-25,87.3,79.0,73.4,66.0,63.2,60.8,67,59,48,30.15,30.03,9,4,9,0.00
2013-4-26,87.4,78.8,72.5,68.3,64.6,60.7,69,62,52,30.16,30.06,10,4,10,0.00
2013-4-27,87.8,79.5,73.4,67.3,64.9,61.2,69,61,49,30.15,30.05,12,5,12,0.00
2013-4-28,89.1,79.8,74.1,67.5,64.4,61.9,68,60,46,30.07,29.96,13,6,13,0.00
2013-4-29,90.5,80.8,75.4,72.3,67.8,63.5,71,65,54,30.00,29.91,14,7,14,0.00
2013-4-30,90.0,79.7,73.8,72.7,68.3,65.9,77,68,57,29.96,29.88,13,4,13,0.00
2013-5-1,89.1,78.3,72.9,73.2,68.3,64.9,79,72,57,29.96,29.88,9,2,9,0.17
2013-5-2,80.8,74.6,71.2,65.0,40.9,4.3,72,36,7,29.91,29.78,16,5,16,3.30
2013-5-3,90.1,77.2,70.7,74.9,52.4,-33.8,99,57,1,29.80,29.69,12,3,12,0.98
2013-5-4,88.7,78.2,69.8,71.5,47.2,0.3,68,41,6,29.78,29.67,9,2,9,0.00
2013-5-5,87.8,76.8,69.1,68.8,61.6,55.4,69,60,41,29.90,29.73,10,3,10,0.00
2013-5-6,89.1,74.7,63.1,67.4,60.6,54.3,75,62,47,29.96,29.88,9,2,9,0.00
2013-5-7,87.3,76.1,65.8,67.7,61.6,55.4,70,61,46,30.02,29.92,13,3,13,0.00
2013-5-8,87.3,76.3,65.1,66.6,62.5,57.4,77,63,48,30.09,29.99,8,2,8,0.00
2013-5-9,91.2,79.8,68.7,73.3,66.8,58.7,73,65,55,30.09,30.02,12,3,12,0.00
2013-5-10,93.2,83.7,75.9,74.8,70.9,66.6,75,66,51,30.08,29.99,12,5,12,0.00
2013-5-11,92.5,82.2,75.6,76.0,70.0,59.2,74,67,51,30.03,29.95,17,4,17,0.03
2013-5-12,89.1,80.7,74.3,74.5,69.8,66.2,76,70,61,30.02,29.91,15,3,15,0.53
2013-5-13,89.8,80.5,73.8,73.2,68.5,65.0,77,67,53,30.04,29.94,9,2,9,0.03
2013-5-14,84.4,79.8,75.6,65.2,62.3,58.4,65,56,47,30.13,30.01,12,4,12,0.00
2013-5-15,85.1,79.9,73.8,65.6,62.7,58.1,63,56,50,30.15,30.05,13,5,13,0.00
2013-5-16,85.8,79.8,73.8,66.2,63.1,58.9,64,57,51,30.06,29.96,9,5,9,0.00
2013-5-17,86.9,80.8,75.0,72.3,68.2,63.0,72,66,61,30.05,29.96,12,4,12,0.00
2013-5-18,87.6,81.8,76.6,73.4,69.8,67.4,76,67,60,30.07,30.00,12,4,12,0.00
2013-5-19,88.7,82.7,77.5,71.5,68.5,66.3,69,63,55,30.06,29.98,9,5,9,0.00
2013-5-20,80.6,77.6,72.9,72.3,68.9,65.4,79,75,67,30.03,29.94,10,4,10,2.04
2013-5-21,83.3,77.6,72.5,72.1,68.7,65.4,79,74,66,30.01,29.91,15,4,15,0.03
2013-5-22,85.1,78.9,75.2,73.3,69.7,67.5,77,74,66,29.94,29.88,13,4,13,0.12
2013-5-23,93.0,83.4,75.4,74.6,71.9,68.4,80,69,49,29.97,29.87,34,3,34,0.03
2013-5-24,91.2,84.7,78.1,74.7,72.5,70.1,79,67,55,30.01,29.91,10,3,10,0.00
2013-5-25,88.5,82.4,75.9,71.3,68.2,64.0,77,63,52,30.11,29.99,12,4,12,0.08
2013-5-26,88.0,82.1,76.6,69.5,65.7,60.8,67,58,53,30.13,30.05,10,4,10,0.00
2013-5-27,86.5,81.1,76.5,71.8,68.2,63.4,76,65,60,30.11,30.03,13,6,13,0.31
2013-5-28,83.3,79.2,76.3,72.1,69.9,67.7,78,73,67,30.07,30.00,17,8,17,0.76
2013-5-29,81.5,77.2,73.6,71.8,69.2,66.7,81,76,67,30.05,29.98,20,7,20,3.91
2013-5-30,82.9,78.6,74.5,73.0,69.6,66.0,79,74,68,30.03,29.98,22,10,22,0.64
2013-5-31,85.1,80.9,76.1,73.9,71.6,68.3,80,73,68,30.03,29.98,18,7,18,0.33
2013-6-1,85.6,79.3,76.3,75.5,71.5,66.2,80,77,71,30.00,29.92,14,3,14,0.28
2013-6-2,88.3,81.5,74.1,83.4,47.2,-32.5,99,38,1,29.96,29.91,15,2,15,0.03
2013-6-3,88.3,81.9,75.9,72.1,57.4,32.8,64,46,20,30.00,29.88,12,3,12,0.09
2013-6-4,85.8,80.7,76.5,69.0,55.2,29.5,62,44,17,30.01,29.92,7,1,7,0.06
2013-6-5,84.4,81.7,79.9,70.7,65.9,62.1,64,59,54,29.98,29.88,9,4,9,0.00
2013-6-6,88.3,81.4,77.7,67.6,53.0,14.7,57,40,8,29.88,29.77,22,7,22,0.89
2013-6-7,92.3,79.9,76.5,75.2,50.2,26.9,59,37,16,29.95,29.82,10,2,10,0.42
2013-6-8,85.5,79.5,75.7,54.5,14.4,-31.2,37,15,1,30.06,29.92,9,2,9,0.56
2013-6-9,89.1,84.2,79.7,75.4,66.1,48.0,69,56,32,30.07,30.01,14,6,14,0.00
2013-6-10,90.1,85.1,80.6,76.6,72.8,67.7,71,67,63,30.05,29.99,12,6,12,0.00
2013-6-11,89.4,84.7,81.0,76.6,72.6,67.4,71,67,61,30.05,29.97,13,5,13,0.00
2013-6-12,82.6,81.7,80.2,72.2,71.3,68.7,71,71,68,30.01,29.98,6,2,6,0.64
2013-6-13,91.2,83.5,77.4,76.2,68.0,50.7,70,60,36,30.01,29.91,10,2,10,0.00
2013-6-14,95.2,84.5,77.2,77.0,71.6,65.6,71,66,54,29.93,29.86,14,2,14,0.06
2013-6-15,91.6,86.1,78.8,76.4,73.4,69.0,73,66,60,30.01,29.88,8,3,8,1.06
2013-6-16,93.0,85.3,78.3,77.1,73.3,68.9,74,68,60,30.05,29.97,9,3,9,0.00
2013-6-17,93.0,87.2,80.8,77.6,74.2,71.1,74,66,58,30.04,29.96,12,4,12,0.00
2013-6-18,92.7,87.2,81.1,77.2,74.2,71.7,74,66,58,30.03,29.96,12,5,12,0.00
2013-6-19,91.9,85.7,80.6,77.6,74.0,71.7,76,68,60,30.01,29.95,13,4,13,0.06
2013-6-20,91.2,84.8,77.4,76.5,72.5,67.5,76,67,59,30.06,29.98,16,3,16,0.08
2013-6-21,92.3,86.6,81.5,75.9,72.9,70.6,72,64,57,30.08,29.98,12,5,12,0.00
2013-6-22,91.4,86.0,80.6,75.4,72.4,70.2,72,64,56,30.06,29.99,9,4,9,0.00
2013-6-23,91.6,85.5,81.0,75.5,72.6,69.1,72,66,59,30.08,30.01,13,6,13,0.00
2013-6-24,91.6,86.3,81.5,75.4,72.5,70.2,70,64,58,30.13,30.03,13,6,13,0.00
2013-6-25,91.2,85.7,81.3,76.6,73.3,70.2,72,67,61,30.08,30.01,12,5,12,0.03
2013-6-26,92.3,86.1,80.6,75.9,73.3,70.3,73,66,58,30.05,29.97,12,6,12,0.00
2013-6-27,90.9,84.2,80.6,76.8,72.9,71.0,74,69,61,30.14,29.95,9,2,9,0.31
2013-6-28,91.4,84.5,78.1,76.8,73.0,68.9,77,69,59,30.15,29.85,14,3,14,0.17
2013-6-29,91.6,83.3,76.3,77.0,73.1,68.9,79,72,60,29.90,29.81,15,3,15,0.33
2013-6-30,91.2,83.3,78.4,76.7,72.9,70.2,77,71,61,29.91,29.83,16,4,16,0.00
2013-7-1,90.5,83.9,79.5,77.6,73.5,70.9,76,71,61,30.00,29.88,16,5,16,0.08
2013-7-2,90.5,84.5,79.5,78.0,74.3,71.3,77,72,64,30.07,29.95,13,5,13,0.63
2013-7-3,90.9,83.7,79.3,77.0,73.6,71.1,77,72,63,30.08,30.01,20,6,20,0.17
2013-7-4,90.7,85.2,81.3,76.6,73.8,71.2,74,69,63,30.11,30.03,15,7,15,0.11
2013-7-5,86.5,83.0,79.2,75.5,73.2,70.5,77,73,67,30.11,30.02,20,7,20,0.78
2013-7-6,89.8,84.3,80.6,75.6,72.9,70.9,74,69,62,30.07,30.00,18,7,18,0.14
2013-7-7,91.2,85.7,81.0,76.2,73.3,71.1,74,67,61,30.06,30.00,12,6,12,0.00
2013-7-8,92.7,86.2,81.1,75.5,72.7,70.0,70,64,56,30.11,30.03,9,4,9,0.00
2013-7-9,90.9,84.3,78.8,74.4,71.6,69.7,76,66,57,30.09,30.02,9,3,9,0.06
2013-7-10,81.9,80.9,78.1,70.3,69.8,68.4,74,69,67,30.05,30.01,8,1,8,0.23
2013-7-12,92.3,85.6,78.8,77.0,72.8,68.3,77,66,59,29.94,29.88,12,2,12,0.00
2013-7-13,88.3,79.7,75.7,76.9,71.1,68.5,79,75,65,29.99,29.89,12,2,12,0.92
2013-7-14,90.1,80.7,75.6,75.7,71.2,67.5,79,73,62,30.06,29.93,10,4,10,0.11
2013-7-15,90.5,82.0,74.1,75.0,67.8,51.4,77,63,37,30.06,29.99,12,3,12,1.20
2013-7-16,84.7,79.5,75.2,72.7,69.2,65.9,74,71,63,30.10,30.01,20,6,20,0.31
2013-7-17,82.6,79.7,77.5,72.2,70.2,68.7,76,73,71,30.10,30.01,10,4,10,0.06
2013-7-18,85.8,79.1,75.6,75.0,69.3,65.4,76,72,66,30.08,30.02,16,3,16,0.64
2013-7-19,89.1,82.2,75.7,75.1,64.2,43.8,70,56,29,30.09,30.02,12,4,12,0.00
2013-7-20,90.3,84.0,79.7,78.1,72.5,68.9,74,68,65,30.08,30.00,17,5,17,0.00
2013-7-21,89.4,83.0,78.3,77.5,72.5,68.4,75,71,66,30.11,30.01,11,2,11,0.53
2013-7-22,91.8,85.0,78.3,77.4,73.1,68.7,75,68,62,30.11,30.03,12,4,12,0.00
2013-7-23,93.0,86.1,79.5,78.4,74.4,70.5,76,68,61,30.06,29.95,31,4,31,0.00
2013-7-24,97.7,87.6,79.9,79.0,73.8,69.9,77,64,50,29.99,29.89,13,2,13,0.00
2013-7-25,95.0,86.9,78.8,77.8,73.7,70.0,76,65,56,29.99,29.88,10,2,10,0.00
2013-7-26,95.5,85.3,79.9,78.1,73.9,71.8,77,69,55,29.98,29.91,10,2,10,0.00
2013-7-27,92.3,83.4,79.7,78.4,73.4,71.1,78,72,63,29.96,29.90,13,1,13,0.00
2013-7-28,87.6,81.3,77.4,77.5,72.9,69.4,79,76,70,30.03,29.91,10,1,10,1.67
2013-7-29,91.9,84.0,77.9,78.4,74.2,70.7,79,73,63,30.10,29.98,10,3,10,0.00
2013-7-30,93.0,86.6,79.3,78.9,75.6,70.0,78,70,63,30.12,30.04,12,4,12,0.00
2013-7-31,92.3,87.0,82.0,77.4,74.5,71.3,75,67,59,30.08,29.98,13,5,13,0.00
2013-8-1,93.0,87.1,82.0,76.6,73.6,71.3,71,65,57,30.02,29.92,12,5,12,0.00
2013-8-2,91.9,83.7,79.0,76.5,72.5,70.0,77,69,58,30.01,29.89,8,2,8,0.06
2013-8-3,86.5,79.6,77.0,77.1,72.0,68.2,80,78,70,30.08,29.98,12,2,12,0.73
2013-8-4,92.7,82.7,76.5,79.2,72.2,64.2,80,71,62,30.07,29.96,14,2,14,0.37
2013-8-5,91.8,83.3,77.9,78.8,73.4,69.5,77,72,63,30.00,29.92,10,2,10,0.03
2013-8-6,92.7,84.9,77.5,78.2,74.1,70.1,78,71,62,29.95,29.88,9,2,9,0.00
2013-8-7,91.9,85.6,80.6,78.9,74.7,71.5,77,70,63,29.96,29.87,16,4,16,0.00
2013-8-8,92.7,87.2,82.6,77.7,74.7,72.3,74,67,60,29.99,29.90,12,6,12,0.00
2013-8-9,91.2,85.3,82.4,76.9,73.4,71.4,73,68,61,30.03,29.92,14,6,14,0.08
2013-8-10,92.1,86.6,81.9,77.8,74.9,72.0,75,69,61,30.08,29.99,10,6,10,0.00
2013-8-11,93.0,87.4,82.4,78.2,75.3,72.8,74,67,60,30.10,30.03,10,4,10,0.00
2013-8-12,93.7,87.0,81.9,77.1,74.1,71.1,72,66,58,30.07,29.99,8,3,8,0.00
2013-8-13,93.7,87.6,82.4,78.1,74.9,72.5,75,66,57,30.02,29.93,12,4,12,0.00
2013-8-14,93.0,87.1,81.0,76.7,74.4,71.9,76,66,58,29.99,29.91,13,4,13,0.00
2013-8-15,88.9,83.7,78.4,76.9,73.8,70.4,79,72,64,30.02,29.93,16,4,16,1.85
2013-8-16,92.7,85.9,80.4,78.7,75.7,72.5,80,72,63,30.02,29.95,12,3,12,0.00
2013-8-17,92.3,87.3,83.1,78.8,76.2,74.1,76,70,63,30.04,29.97,12,5,12,0.00
2013-8-18,92.3,87.0,83.1,78.4,75.4,72.7,73,69,61,30.05,29.97,13,6,13,0.00
2013-8-19,93.2,88.3,83.1,78.0,75.9,73.8,75,67,60,30.04,29.95,14,5,14,0.00
2013-8-20,93.0,87.2,82.0,77.9,74.9,70.9,74,67,60,30.03,29.95,13,5,13,0.00
2013-8-21,90.0,85.3,82.4,78.1,75.3,73.2,77,72,66,30.05,29.97,16,5,16,0.03
2013-8-22,91.6,86.9,81.1,78.7,75.8,71.9,78,70,63,30.03,29.94,15,5,15,0.25
2013-8-23,92.3,85.9,81.3,78.4,75.1,72.6,79,71,63,30.00,29.91,9,4,9,0.00
2013-8-24,86.0,83.0,81.3,75.9,73.4,71.3,77,73,66,30.08,29.94,8,3,8,0.00
2013-8-25,89.6,84.3,80.2,75.8,73.3,71.2,76,70,62,30.11,30.00,8,2,8,0.00
2013-8-26,91.9,84.3,78.1,77.1,73.4,69.7,78,70,60,30.08,29.99,13,3,13,0.22
2013-8-27,85.8,80.7,76.3,75.1,71.4,69.7,81,74,62,30.01,29.94,7,1,7,0.06
2013-8-28,90.1,83.7,78.4,75.4,72.8,69.7,78,70,62,30.00,29.92,14,3,14,0.03
2013-8-29,91.6,84.4,76.5,77.7,73.6,69.1,79,71,62,30.00,29.91,9,3,9,0.00
2013-8-30,93.0,86.0,78.8,76.9,74.2,71.4,79,68,56,29.98,29.88,12,3,12,0.00
2013-8-31,91.2,83.9,78.3,78.1,73.3,69.4,78,71,63,29.95,29.88,12,2,12,0.00
2013-9-1,89.4,82.3,76.6,77.4,73.1,69.4,82,74,66,29.97,29.89,8,2,8,0.00
2013-9-2,91.9,81.5,76.6,78.0,72.8,69.6,82,75,62,30.00,29.91,14,2,14,0.93
2013-9-3,90.7,82.7,74.8,77.9,73.3,68.6,83,74,62,29.99,29.90,10,2,10,0.00
2013-9-4,88.7,84.8,81.7,77.7,75.1,72.8,77,73,68,30.03,29.91,9,2,9,0.00
2013-9-5,92.5,86.2,80.6,78.7,75.6,72.9,79,71,62,30.04,29.96,9,3,9,0.08
2013-9-6,93.0,86.7,81.5,79.1,75.8,73.5,80,71,60,30.00,29.92,9,3,9,0.11
2013-9-7,88.7,81.1,77.0,76.9,72.7,69.5,80,76,67,29.95,29.87,10,1,10,0.33
2013-9-8,90.1,82.2,75.7,77.8,73.0,69.8,83,74,65,29.92,29.84,8,1,8,0.03
2013-9-9,90.3,83.2,76.3,76.7,73.1,69.2,83,72,62,29.97,29.87,8,3,8,1.06
2013-9-10,89.1,84.1,80.4,76.9,73.5,71.0,76,71,66,30.01,29.92,10,4,10,0.00
2013-9-11,85.5,81.6,77.0,77.0,72.8,69.3,81,75,71,30.03,29.94,15,3,15,0.92
2013-9-12,85.8,81.8,78.1,76.2,73.8,71.2,82,77,72,29.99,29.87,8,2,8,1.23
2013-9-13,89.6,82.9,76.3,78.3,73.9,70.4,85,75,66,29.89,29.80,8,2,8,0.19
2013-9-14,91.6,85.2,78.1,77.8,74.2,71.2,81,70,61,29.94,29.80,10,3,10,0.00
2013-9-15,88.3,82.7,78.4,78.2,73.8,70.7,82,74,69,30.02,29.89,14,4,14,0.31
2013-9-16,86.9,82.1,80.4,77.4,74.1,72.7,80,77,71,30.01,29.93,12,4,12,0.00
2013-9-17,81.7,79.9,77.2,75.3,73.0,71.3,84,80,75,30.01,29.89,8,4,8,2.12
2013-9-18,86.9,80.3,77.0,77.5,73.2,70.9,84,79,71,29.99,29.89,7,2,7,0.70
2013-9-19,89.4,82.4,76.1,77.7,73.3,69.7,83,74,66,29.98,29.89,9,3,9,0.00
2013-9-20,89.4,83.5,78.8,73.2,70.5,67.3,70,65,57,29.97,29.88,10,3,10,0.00
2013-9-21,89.4,83.7,78.4,74.7,71.4,68.3,73,67,61,29.89,29.78,10,3,10,0.00
2013-9-22,88.0,83.5,79.2,77.1,74.1,71.2,79,74,68,29.84,29.75,12,3,12,0.06
2013-9-23,88.7,82.2,78.8,78.9,74.7,72.5,83,78,72,29.95,29.83,8,1,8,0.14
2013-9-24,90.9,81.6,77.2,80.3,74.5,70.3,85,79,67,29.95,29.85,15,2,15,1.59
2013-9-25,88.7,81.7,75.4,78.9,73.0,69.3,83,76,63,29.88,29.79,10,2,10,0.06
2013-9-26,91.2,81.8,77.5,79.1,74.3,71.0,83,78,65,29.85,29.77,12,2,12,0.22
2013-9-27,88.3,82.0,75.9,75.6,72.8,70.2,83,74,62,29.89,29.79,9,2,9,0.08
2013-9-28,88.2,81.7,75.7,76.0,71.9,69.1,82,73,63,29.93,29.84,10,3,10,0.03
2013-9-29,89.2,83.7,77.9,73.2,70.3,67.7,72,64,59,29.94,29.87,7,2,7,0.00
2013-9-30,88.9,83.4,77.0,73.3,70.5,67.4,75,65,59,29.97,29.87,8,3,8,0.00
2013-10-1,89.4,84.6,80.6,75.6,71.9,69.7,70,66,60,30.00,29.91,9,4,9,0.00
2013-10-2,88.7,84.0,80.2,74.1,71.8,69.9,72,67,61,30.01,29.93,9,4,9,0.00
2013-10-3,88.9,84.1,80.6,74.4,72.1,70.2,74,67,60,30.03,29.91,10,3,10,0.00
2013-10-4,89.8,84.3,79.9,74.0,71.6,69.2,72,66,59,30.03,29.95,8,3,8,0.00
2013-10-5,89.8,84.7,75.2,74.4,71.8,67.1,77,66,60,29.99,29.92,8,3,8,0.08
2013-10-6,87.8,83.2,79.3,75.6,72.0,69.7,76,69,61,29.94,29.85,8,3,8,0.06
2013-10-7,92.3,81.7,77.0,76.2,71.6,68.7,80,72,57,29.88,29.81,14,2,14,0.19
2013-10-8,91.6,82.5,77.2,76.4,73.1,68.9,84,74,60,29.91,29.82,9,2,9,0.00
2013-10-9,84.6,79.4,75.2,74.5,70.9,67.5,80,75,70,29.95,29.87,8,2,8,0.00
2013-10-10,87.3,81.3,74.5,74.7,70.6,67.5,80,71,60,29.98,29.91,10,3,10,0.00
2013-10-11,86.5,80.0,73.2,71.5,68.2,65.5,77,68,57,29.99,29.91,8,2,8,0.00
2013-10-14,87.1,82.5,73.2,71.3,68.8,64.8,76,63,55,29.98,29.89,9,2,9,0.00
2013-10-15,86.5,80.4,74.1,72.6,69.1,66.4,78,69,63,29.93,29.86,8,2,8,0.00
2013-10-16,86.2,80.2,73.9,71.2,68.7,65.8,77,68,61,29.92,29.86,7,2,7,0.00
2013-10-17,89.4,81.5,74.1,72.9,69.9,67.2,80,68,57,29.94,29.85,8,2,8,0.00
2013-10-18,90.5,82.4,75.6,74.4,70.9,68.2,80,69,58,29.96,29.87,9,3,9,0.00
2013-10-19,90.5,83.6,78.8,74.7,72.0,69.5,76,68,58,29.94,29.86,12,5,74,0.00
2013-10-20,90.0,82.7,77.5,76.9,73.6,71.0,83,74,64,29.94,29.85,10,2,10,0.00
2013-10-21,91.2,83.9,78.1,77.0,74.0,71.6,82,73,62,29.98,29.89,12,4,12,0.00
2013-10-22,91.9,84.5,78.4,77.5,74.4,71.3,79,72,60,29.93,29.81,14,4,14,0.00
2013-10-23,90.9,82.0,77.2,74.5,71.5,67.2,83,71,59,29.92,29.80,12,2,12,0.00
2013-10-24,83.3,78.5,75.2,67.7,65.1,62.6,72,64,57,30.04,29.90,12,3,12,0.00
2013-10-25,85.3,79.0,72.5,66.4,64.0,61.4,71,61,52,30.11,30.02,14,4,14,0.00
2013-10-26,86.4,78.7,72.9,66.5,63.4,60.9,67,60,51,30.10,30.03,9,3,9,0.00
2013-10-27,86.2,76.4,68.7,67.4,63.0,58.9,72,64,51,30.05,29.99,7,2,7,0.00
2013-10-28,86.5,79.7,74.8,68.0,64.9,62.1,68,61,49,30.10,30.01,7,3,7,0.00
2013-10-29,87.4,80.8,76.1,70.8,67.2,64.5,70,63,55,30.13,30.04,10,4,10,0.00
2013-10-30,87.3,80.7,76.6,70.3,67.2,64.9,70,64,54,30.14,30.06,12,5,12,0.00
2013-10-31,88.7,81.6,77.7,73.5,69.8,65.5,75,68,59,30.08,29.97,12,6,12,0.00
2013-11-1,88.2,82.1,78.4,75.6,71.6,69.1,75,71,63,29.97,29.88,13,5,13,0.00
2013-11-2,89.6,80.7,73.6,72.1,69.5,62.9,82,70,53,29.91,29.80,7,1,7,0.00
2013-11-3,82.6,76.7,71.6,66.5,63.3,60.6,71,63,55,29.99,29.86,14,4,14,0.00
2013-11-4,82.4,77.9,75.2,68.1,63.9,58.2,71,62,51,30.05,29.97,17,6,17,0.03
2013-11-5,85.5,80.2,77.0,70.9,68.1,64.6,72,67,59,30.06,29.99,17,8,17,0.00
2013-11-6,86.5,80.3,76.3,70.5,68.1,66.4,73,67,57,30.03,29.97,13,4,13,0.00
2013-11-7,86.9,78.5,72.3,72.0,68.6,65.6,82,72,60,29.98,29.91,8,2,8,0.00
2013-11-8,86.5,78.5,72.9,72.3,68.9,65.4,85,73,59,30.00,29.90,17,4,17,0.50
2013-11-9,80.1,77.4,74.5,70.6,69.2,68.0,84,76,70,30.07,29.97,14,7,14,0.19
2013-11-10,85.8,79.9,77.0,72.7,69.1,66.1,76,70,63,30.08,30.02,8,4,8,0.00
2013-11-11,85.6,80.0,76.8,71.3,67.7,64.8,73,66,61,30.09,30.01,10,4,10,0.00
2013-11-12,86.5,80.0,75.2,69.7,67.4,65.8,74,66,55,30.04,29.95,8,2,8,0.00
2013-11-13,79.3,73.7,70.2,66.4,62.4,55.2,79,68,59,30.16,29.96,17,6,18,0.08
2013-11-14,79.9,74.1,70.2,63.2,59.0,54.7,65,59,53,30.19,30.09,14,7,14,0.00
2013-11-15,84.2,77.7,73.8,69.3,65.8,61.3,71,67,61,30.10,30.01,12,6,12,0.00
2013-11-16,82.2,78.7,77.5,71.9,68.9,66.1,79,72,65,30.06,29.98,13,5,13,0.14
2013-11-17,86.7,80.4,77.2,73.0,69.9,67.0,78,70,63,30.03,29.98,12,6,12,0.00
2013-11-18,87.3,80.0,74.5,74.1,70.2,68.2,82,72,64,29.99,29.89,8,2,8,0.00
2013-11-19,84.9,77.0,73.2,72.9,69.8,67.9,85,79,66,29.91,29.84,6,1,6,2.43
2013-11-20,84.6,77.4,71.4,73.7,70.1,65.2,86,78,69,30.02,29.88,9,2,9,0.00
2013-11-21,84.4,78.2,74.5,72.6,70.0,67.7,81,76,66,30.11,30.00,13,4,13,0.98
2013-11-22,84.0,79.1,76.6,71.0,68.8,67.1,77,71,64,30.11,30.03,13,5,13,0.00
2013-11-23,85.1,78.9,74.8,74.2,68.8,66.7,77,72,63,30.03,29.95,10,3,10,0.00
2013-11-24,82.6,75.0,70.2,68.8,66.1,62.2,85,74,61,30.10,29.95,16,4,16,0.48
2013-11-25,77.5,74.4,72.3,66.9,63.5,59.5,76,69,64,30.15,30.01,15,8,15,0.00
2013-11-26,83.7,78.4,73.4,73.7,70.7,65.4,83,77,72,30.01,29.81,18,6,18,0.06
2013-11-27,77.9,73.0,61.7,72.3,64.6,51.4,86,75,58,30.07,29.76,15,3,15,0.81
2013-11-28,73.8,65.4,54.1,60.0,53.5,45.8,74,66,55,30.20,30.06,9,2,10,0.00
2013-11-29,78.6,72.9,64.4,62.3,59.6,55.4,74,63,55,30.20,30.13,14,4,14,0.00
2013-11-30,78.6,73.1,66.0,69.3,62.3,58.0,81,69,61,30.15,30.05,14,4,14,0.03
2013-12-1,82.2,73.5,68.0,69.1,65.4,60.1,85,76,64,30.06,29.91,9,2,9,1.85
2013-12-2,72.9,70.0,64.9,66.0,63.8,59.0,86,81,77,29.91,29.80,7,1,7,0.06
2013-12-3,78.6,71.1,63.7,65.0,62.3,57.6,84,74,59,29.96,29.86,7,1,7,0.00
2013-12-4,79.3,72.2,67.6,66.5,64.8,61.9,83,78,65,30.05,29.95,9,1,9,0.00
2013-12-5,83.7,77.3,71.1,70.9,67.5,63.8,80,72,64,30.11,30.03,14,4,14,0.00
2013-12-6,84.7,78.7,75.9,71.3,67.9,65.2,77,70,62,30.14,30.04,14,6,14,0.00
2013-12-7,84.0,76.2,71.4,71.9,68.0,64.6,84,76,65,30.16,30.10,8,2,8,0.11
2013-12-8,84.7,78.8,75.2,71.1,68.1,65.0,78,70,62,30.15,30.08,15,6,15,0.00
2013-12-9,84.4,79.1,76.5,69.9,67.8,65.5,75,69,60,30.14,30.07,13,6,13,0.00
2013-12-10,80.1,78.0,74.8,70.6,69.1,67.1,80,74,71,30.12,30.05,10,4,10,0.00
2013-12-11,83.7,76.7,71.6,72.0,68.7,66.5,86,77,65,30.14,30.06,6,1,6,0.00
2013-12-12,82.4,74.2,71.2,76.7,65.0,59.0,85,73,63,30.16,30.08,15,4,15,0.00
2013-12-13,80.2,74.3,70.7,66.2,62.3,57.4,75,66,60,30.14,30.06,14,6,14,0.00
2013-12-14,84.0,78.2,74.5,72.0,69.0,66.0,78,74,66,30.07,29.96,17,7,18,0.00
2013-12-15,83.7,77.4,72.9,73.7,69.8,65.6,85,78,69,30.01,29.89,12,2,12,0.00
2013-12-16,77.4,70.8,64.9,65.6,60.9,57.4,78,71,62,30.10,29.98,9,2,10,0.00
2013-12-17,77.2,68.7,62.1,66.0,58.5,55.6,80,70,58,30.12,30.05,9,2,9,0.00
2013-12-18,75.4,67.7,62.8,59.6,57.1,55.6,82,69,56,30.17,30.08,5,1,9,0.00
2013-12-19,78.3,72.4,62.8,65.8,60.0,54.9,82,65,55,30.17,30.10,10,4,11,0.00
2013-12-20,82.6,77.2,73.0,69.7,66.1,61.0,74,69,64,30.13,30.06,10,6,11,0.00
2013-12-21,84.7,78.8,75.7,72.6,69.7,66.8,78,74,66,30.10,30.03,14,8,14,0.00
2013-12-22,85.1,79.5,76.8,72.9,70.5,68.7,79,74,66,30.11,30.03,15,7,15,0.00
2013-12-23,85.1,79.0,73.6,73.9,70.4,66.8,81,75,68,30.13,30.06,14,6,14,0.00
2013-12-24,83.7,74.3,70.3,71.4,66.1,61.7,85,76,65,30.11,30.05,15,3,15,0.00
2013-12-25,79.5,74.6,71.8,66.7,64.2,62.0,74,70,64,30.11,30.05,14,5,14,0.00
2013-12-26,79.9,76.0,73.6,69.2,67.1,64.8,77,74,69,30.11,30.02,8,4,8,0.00
2013-12-27,82.6,77.4,74.7,70.5,68.1,66.3,79,73,67,30.14,30.04,15,4,15,0.00
2013-12-28,81.7,77.2,74.5,70.9,68.7,66.2,82,75,69,30.11,29.98,15,7,15,0.03
2013-12-29,82.9,78.1,75.4,73.8,71.1,69.5,84,79,73,29.99,29.89,15,5,15,0.00
2013-12-30,79.3,74.7,71.8,70.6,68.1,63.6,85,80,73,30.08,29.94,7,1,7,0.00
2013-12-31,80.4,74.5,70.5,66.7,64.0,62.3,79,70,60,30.17,30.04,13,3,13,0.00
2014-1-1,83.3,77.5,73.9,72.7,68.8,63.6,80,75,69,30.14,30.01,14,5,14,0.00
2014-1-2,85.8,78.7,73.9,71.7,68.5,66.2,81,72,55,30.01,29.85,13,3,13,0.00